Jonni Ritscher — A8JT7 — position and weather

sailwx.info

Track history (hours):
 
Tides and Currents Weather Stations Pressure Air Temp Water Temp Dewpoint Dewpoint Depression Visibility Wind Speed Wind Dir Waves Ship Positions

Jonni Ritscher

Last reported at 2014-Oct-20 06:16 UTC. Time now 2014-Oct-20 09:59 UTC.
Position N 57°45' E 009°43'.

Length 178 m; draft 10.3 m.

Type: Ship. MMSI: 636091136.

Date/timePositionNaut miles runAvg speedWind from/ knotsBaromVisibWave heightAir tempDewpointWater temp
2014-Oct-20 06:16N 57°45' E 009°43'1115.1
2014-Oct-20 05:33N 57°50' E 010°01'1514.9
2014-Oct-20 04:34N 57°50' E 010°29'1413.7
2014-Oct-20 03:33N 57°45' E 010°52'1615.7
2014-Oct-20 02:34N 57°34' E 011°14'1616.2
2014-Oct-20 01:33N 57°20' E 011°31'1717.3
2014-Oct-20 00:33N 57°04' E 011°41'1717.2
2014-Oct-19 23:33N 56°48' E 011°53'1616.6
2014-Oct-19 22:33N 56°33' E 011°42'11514.3
2014-Oct-19 14:30N 54°40' E 010°59'2116.7
2014-Oct-19 13:14N 54°30' E 011°31'1216.4
2014-Oct-19 12:32N 54°26' E 011°50'1414.5
2014-Oct-19 11:33N 54°30' E 012°13'6516.0
2014-Oct-19 07:29N 55°02' E 013°52'1515.8
2014-Oct-19 06:34N 55°11' E 014°12'1616.3
2014-Oct-19 05:33N 55°23' E 014°30'1615.9
2014-Oct-19 04:34N 55°32' E 014°53'1615.8
2014-Oct-19 03:33N 55°40' E 015°18'3115.6
2014-Oct-19 01:33N 55°55' E 016°06'1715.8
2014-Oct-19 00:29N 56°04' E 016°32'29916.2
2014-Oct-18 06:05N 59°36' E 023°06'917.1
2014-Oct-18 05:32N 59°39' E 023°24'1717.1
2014-Oct-18 04:33N 59°44' E 023°56'1717.3
2014-Oct-18 03:33N 59°48' E 024°29'2517.1
2014-Oct-18 02:05N 59°52' E 025°18'1016.9
2014-Oct-18 01:30N 59°54' E 025°38'1617.0
2014-Oct-18 00:32N 59°58' E 026°09'2016.6
2014-Oct-17 23:19N 60°00' E 026°49'102 6.7
2014-Oct-17 08:04N 59°53' E 030°13'0 0.0
2014-Oct-17 07:30N 59°53' E 030°13'0 0.0
2014-Oct-17 06:33N 59°53' E 030°13'0 0.1
2014-Oct-17 05:33N 59°53' E 030°13'0 0.1
2014-Oct-17 04:32N 59°53' E 030°13'0 0.0
2014-Oct-17 03:32N 59°53' E 030°13'1 0.2
2014-Oct-16 21:33N 59°53' E 030°12'0 0.0
2014-Oct-16 18:28N 59°53' E 030°12'0 0.0
2014-Oct-16 17:10N 59°53' E 030°12'0 0.0
2014-Oct-16 16:33N 59°53' E 030°12'0 0.0
2014-Oct-16 15:33N 59°53' E 030°12'0 0.0
2014-Oct-16 14:20N 59°53' E 030°12'0 0.0
2014-Oct-16 13:17N 59°53' E 030°12'0 0.0
2014-Oct-16 12:32N 59°53' E 030°12'0 0.1
2014-Oct-16 11:31N 59°53' E 030°12'0 0.0
2014-Oct-16 08:33N 59°53' E 030°12'0 0.0
2014-Oct-16 06:31N 59°53' E 030°12'0 0.0
2014-Oct-16 05:33N 59°53' E 030°12'0 0.0
2014-Oct-16 03:33N 59°53' E 030°12'1 0.8
2014-Oct-16 02:33N 59°53' E 030°10'8714.0
2014-Oct-15 20:21N 60°02' E 027°18'1215.2
2014-Oct-15 19:34N 59°58' E 026°55'1414.1
2014-Oct-15 18:33N 60°00' E 026°27'26 1.0
2014-Oct-14 17:28N 60°02' E 027°19'1415.7
2014-Oct-14 16:33N 59°59' E 026°51'1616.3
2014-Oct-14 15:33N 59°57' E 026°19'5717.0
2014-Oct-14 12:13N 59°44' E 024°29'1116.8
2014-Oct-14 11:33N 59°41' E 024°07'1716.8
2014-Oct-14 10:33N 59°36' E 023°36'30716.9
2014-Oct-13 16:23N 56°02' E 016°42'1416.6
2014-Oct-13 15:33N 55°55' E 016°21'2016.4
2014-Oct-13 14:19N 55°45' E 015°49'1316.6
2014-Oct-13 13:33N 55°39' E 015°30'1716.7
2014-Oct-13 12:33N 55°31' E 015°04'1716.9
2014-Oct-13 11:33N 55°23' E 014°38'1716.9
2014-Oct-13 10:33N 55°10' E 014°19'6616.4
2014-Oct-13 06:33N 54°42' E 012°35'1717.0
2014-Oct-13 05:33N 54°30' E 012°14'4914.9
2014-Oct-13 02:16N 54°42' E 010°52'1517.0
2014-Oct-13 01:22N 54°57' E 010°57'1417.2
2014-Oct-13 00:33N 55°10' E 011°03'6815.7
2014-Oct-12 20:12N 56°18' E 011°23'1116.9
2014-Oct-12 19:33N 56°27' E 011°34'1716.9
2014-Oct-12 18:33N 56°42' E 011°49'1716.7
2014-Oct-12 17:33N 56°59' E 011°43'1717.3
2014-Oct-12 16:34N 57°15' E 011°32'1717.1
2014-Oct-12 15:34N 57°30' E 011°19'1716.8
2014-Oct-12 14:33N 57°42' E 010°56'1717.1
2014-Oct-12 13:33N 57°48' E 010°27'15116.7
2014-Oct-12 04:33N 55°54' E 007°26'1717.6
2014-Oct-12 03:34N 55°37' E 007°20'1817.7
2014-Oct-12 02:33N 55°20' E 007°25'1817.6
2014-Oct-12 01:33N 55°02' E 007°26'1717.2
2014-Oct-12 00:33N 54°45' E 007°28'1717.3
2014-Oct-11 23:33N 54°28' E 007°31'1716.6
2014-Oct-11 22:33N 54°12' E 007°40'1615.9
2014-Oct-11 21:33N 54°02' E 008°01'1515.3
2014-Oct-11 20:33N 53°59' E 008°26'1817.9
2014-Oct-11 19:33N 53°50' E 008°53'1515.1
2014-Oct-11 18:34N 53°51' E 009°19'1615.8
2014-Oct-11 17:33N 53°38' E 009°32'1010.2
2014-Oct-11 16:34N 53°33' E 009°48'4 4.4
2014-Oct-11 15:34N 53°32' E 009°55'0 0.0
2014-Oct-11 14:31N 53°32' E 009°55'0 0.0
2014-Oct-11 13:30N 53°32' E 009°55'0 0.0
2014-Oct-11 12:33N 53°32' E 009°55'0 0.0
2014-Oct-11 11:29N 53°32' E 009°55'0 0.0
2014-Oct-11 10:32N 53°32' E 009°55'0 0.0
2014-Oct-11 09:31N 53°32' E 009°55'0 0.0
2014-Oct-11 08:31N 53°32' E 009°55'0 0.0
2014-Oct-11 07:33N 53°32' E 009°55'0 0.0
2014-Oct-11 06:33N 53°32' E 009°55'0 0.0
2014-Oct-11 05:33N 53°32' E 009°55'0 0.0
2014-Oct-11 04:32N 53°32' E 009°55'0 0.0
2014-Oct-11 03:32N 53°32' E 009°55'0 0.0
2014-Oct-11 02:32N 53°32' E 009°55'0 0.0
2014-Oct-11 01:31N 53°32' E 009°55'0 0.0
2014-Oct-11 00:33N 53°32' E 009°55'0 0.0
2014-Oct-10 23:30N 53°32' E 009°55'0 0.0
2014-Oct-10 22:33N 53°32' E 009°55'0 0.0
2014-Oct-10 21:32N 53°32' E 009°55'0 0.0
2014-Oct-10 20:29N 53°32' E 009°55'0 0.0
2014-Oct-10 19:31N 53°32' E 009°55'0 0.0
2014-Oct-10 18:31N 53°32' E 009°55'0 0.0
2014-Oct-10 17:33N 53°32' E 009°55'0 0.0
2014-Oct-10 16:33N 53°32' E 009°55'0 0.0
2014-Oct-10 15:32N 53°32' E 009°55'0 0.0
2014-Oct-10 14:32N 53°32' E 009°55'0 0.0
2014-Oct-10 13:32N 53°32' E 009°55'0 0.0
2014-Oct-10 12:32N 53°32' E 009°55'0 0.0
2014-Oct-10 11:31N 53°32' E 009°55'0 0.0
2014-Oct-10 10:33N 53°32' E 009°55'0 0.0
2014-Oct-10 09:33N 53°32' E 009°55'0 0.0
2014-Oct-10 08:33N 53°32' E 009°55'0 0.0
2014-Oct-10 07:33N 53°32' E 009°55'0 0.0
2014-Oct-10 06:33N 53°32' E 009°55'  
Track history (hours):
 
Tides and Currents Weather Stations Pressure Air Temp Water Temp Dewpoint Dewpoint Depression Visibility Wind Speed Wind Dir Waves Ship Positions

Jonni Ritscher

Last reported at 2014-Oct-20 06:16 UTC. Time now 2014-Oct-20 09:59 UTC.
Position N 57°45' E 009°43'.

Length 178 m; draft 10.3 m.

Type: Ship. MMSI: 636091136.

Date/timePositionNaut miles runAvg speedWind from/ knotsBaromVisibWave heightAir tempDewpointWater temp
2014-Oct-20 06:16N 57°45' E 009°43'1115.1
2014-Oct-20 05:33N 57°50' E 010°01'1514.9
2014-Oct-20 04:34N 57°50' E 010°29'1413.7
2014-Oct-20 03:33N 57°45' E 010°52'1615.7
2014-Oct-20 02:34N 57°34' E 011°14'1616.2
2014-Oct-20 01:33N 57°20' E 011°31'1717.3
2014-Oct-20 00:33N 57°04' E 011°41'1717.2
2014-Oct-19 23:33N 56°48' E 011°53'1616.6
2014-Oct-19 22:33N 56°33' E 011°42'11514.3
2014-Oct-19 14:30N 54°40' E 010°59'2116.7
2014-Oct-19 13:14N 54°30' E 011°31'1216.4
2014-Oct-19 12:32N 54°26' E 011°50'1414.5
2014-Oct-19 11:33N 54°30' E 012°13'6516.0
2014-Oct-19 07:29N 55°02' E 013°52'1515.8
2014-Oct-19 06:34N 55°11' E 014°12'1616.3
2014-Oct-19 05:33N 55°23' E 014°30'1615.9
2014-Oct-19 04:34N 55°32' E 014°53'1615.8
2014-Oct-19 03:33N 55°40' E 015°18'3115.6
2014-Oct-19 01:33N 55°55' E 016°06'1715.8
2014-Oct-19 00:29N 56°04' E 016°32'29916.2
2014-Oct-18 06:05N 59°36' E 023°06'917.1
2014-Oct-18 05:32N 59°39' E 023°24'1717.1
2014-Oct-18 04:33N 59°44' E 023°56'1717.3
2014-Oct-18 03:33N 59°48' E 024°29'2517.1
2014-Oct-18 02:05N 59°52' E 025°18'1016.9
2014-Oct-18 01:30N 59°54' E 025°38'1617.0
2014-Oct-18 00:32N 59°58' E 026°09'2016.6
2014-Oct-17 23:19N 60°00' E 026°49'102 6.7
2014-Oct-17 08:04N 59°53' E 030°13'0 0.0
2014-Oct-17 07:30N 59°53' E 030°13'0 0.0
2014-Oct-17 06:33N 59°53' E 030°13'0 0.1
2014-Oct-17 05:33N 59°53' E 030°13'0 0.1
2014-Oct-17 04:32N 59°53' E 030°13'0 0.0
2014-Oct-17 03:32N 59°53' E 030°13'1 0.2
2014-Oct-16 21:33N 59°53' E 030°12'0 0.0
2014-Oct-16 18:28N 59°53' E 030°12'0 0.0
2014-Oct-16 17:10N 59°53' E 030°12'0 0.0
2014-Oct-16 16:33N 59°53' E 030°12'0 0.0
2014-Oct-16 15:33N 59°53' E 030°12'0 0.0
2014-Oct-16 14:20N 59°53' E 030°12'0 0.0
2014-Oct-16 13:17N 59°53' E 030°12'0 0.0
2014-Oct-16 12:32N 59°53' E 030°12'0 0.1
2014-Oct-16 11:31N 59°53' E 030°12'0 0.0
2014-Oct-16 08:33N 59°53' E 030°12'0 0.0
2014-Oct-16 06:31N 59°53' E 030°12'0 0.0
2014-Oct-16 05:33N 59°53' E 030°12'0 0.0
2014-Oct-16 03:33N 59°53' E 030°12'1 0.8
2014-Oct-16 02:33N 59°53' E 030°10'8714.0
2014-Oct-15 20:21N 60°02' E 027°18'1215.2
2014-Oct-15 19:34N 59°58' E 026°55'1414.1
2014-Oct-15 18:33N 60°00' E 026°27'26 1.0
2014-Oct-14 17:28N 60°02' E 027°19'1415.7
2014-Oct-14 16:33N 59°59' E 026°51'1616.3
2014-Oct-14 15:33N 59°57' E 026°19'5717.0
2014-Oct-14 12:13N 59°44' E 024°29'1116.8
2014-Oct-14 11:33N 59°41' E 024°07'1716.8
2014-Oct-14 10:33N 59°36' E 023°36'30716.9
2014-Oct-13 16:23N 56°02' E 016°42'1416.6
2014-Oct-13 15:33N 55°55' E 016°21'2016.4
2014-Oct-13 14:19N 55°45' E 015°49'1316.6
2014-Oct-13 13:33N 55°39' E 015°30'1716.7
2014-Oct-13 12:33N 55°31' E 015°04'1716.9
2014-Oct-13 11:33N 55°23' E 014°38'1716.9
2014-Oct-13 10:33N 55°10' E 014°19'6616.4
2014-Oct-13 06:33N 54°42' E 012°35'1717.0
2014-Oct-13 05:33N 54°30' E 012°14'4914.9
2014-Oct-13 02:16N 54°42' E 010°52'1517.0
2014-Oct-13 01:22N 54°57' E 010°57'1417.2
2014-Oct-13 00:33N 55°10' E 011°03'6815.7
2014-Oct-12 20:12N 56°18' E 011°23'1116.9
2014-Oct-12 19:33N 56°27' E 011°34'1716.9
2014-Oct-12 18:33N 56°42' E 011°49'1716.7
2014-Oct-12 17:33N 56°59' E 011°43'1717.3
2014-Oct-12 16:34N 57°15' E 011°32'1717.1
2014-Oct-12 15:34N 57°30' E 011°19'1716.8
2014-Oct-12 14:33N 57°42' E 010°56'1717.1
2014-Oct-12 13:33N 57°48' E 010°27'15116.7
2014-Oct-12 04:33N 55°54' E 007°26'1717.6
2014-Oct-12 03:34N 55°37' E 007°20'1817.7
2014-Oct-12 02:33N 55°20' E 007°25'1817.6
2014-Oct-12 01:33N 55°02' E 007°26'1717.2
2014-Oct-12 00:33N 54°45' E 007°28'1717.3
2014-Oct-11 23:33N 54°28' E 007°31'1716.6
2014-Oct-11 22:33N 54°12' E 007°40'1615.9
2014-Oct-11 21:33N 54°02' E 008°01'1515.3
2014-Oct-11 20:33N 53°59' E 008°26'1817.9
2014-Oct-11 19:33N 53°50' E 008°53'1515.1
2014-Oct-11 18:34N 53°51' E 009°19'1615.8
2014-Oct-11 17:33N 53°38' E 009°32'1010.2
2014-Oct-11 16:34N 53°33' E 009°48'4 4.4
2014-Oct-11 15:34N 53°32' E 009°55'0 0.0
2014-Oct-11 14:31N 53°32' E 009°55'0 0.0
2014-Oct-11 13:30N 53°32' E 009°55'0 0.0
2014-Oct-11 12:33N 53°32' E 009°55'0 0.0
2014-Oct-11 11:29N 53°32' E 009°55'0 0.0
2014-Oct-11 10:32N 53°32' E 009°55'0 0.0
2014-Oct-11 09:31N 53°32' E 009°55'0 0.0
2014-Oct-11 08:31N 53°32' E 009°55'0 0.0
2014-Oct-11 07:33N 53°32' E 009°55'0 0.0
2014-Oct-11 06:33N 53°32' E 009°55'0 0.0
2014-Oct-11 05:33N 53°32' E 009°55'0 0.0
2014-Oct-11 04:32N 53°32' E 009°55'0 0.0
2014-Oct-11 03:32N 53°32' E 009°55'0 0.0
2014-Oct-11 02:32N 53°32' E 009°55'0 0.0
2014-Oct-11 01:31N 53°32' E 009°55'0 0.0
2014-Oct-11 00:33N 53°32' E 009°55'0 0.0
2014-Oct-10 23:30N 53°32' E 009°55'0 0.0
2014-Oct-10 22:33N 53°32' E 009°55'0 0.0
2014-Oct-10 21:32N 53°32' E 009°55'0 0.0
2014-Oct-10 20:29N 53°32' E 009°55'0 0.0
2014-Oct-10 19:31N 53°32' E 009°55'0 0.0
2014-Oct-10 18:31N 53°32' E 009°55'0 0.0
2014-Oct-10 17:33N 53°32' E 009°55'0 0.0
2014-Oct-10 16:33N 53°32' E 009°55'0 0.0
2014-Oct-10 15:32N 53°32' E 009°55'0 0.0
2014-Oct-10 14:32N 53°32' E 009°55'0 0.0
2014-Oct-10 13:32N 53°32' E 009°55'0 0.0
2014-Oct-10 12:32N 53°32' E 009°55'0 0.0
2014-Oct-10 11:31N 53°32' E 009°55'0 0.0
2014-Oct-10 10:33N 53°32' E 009°55'0 0.0
2014-Oct-10 09:33N 53°32' E 009°55'0 0.0
2014-Oct-10 08:33N 53°32' E 009°55'0 0.0
2014-Oct-10 07:33N 53°32' E 009°55'0 0.0
2014-Oct-10 06:33N 53°32' E 009°55'  

Dump ship's entire track history